AUA21F EDDF-LOWW
Flight info
| Callsign | AUA21F |
|---|---|
| Flight time | 1h 8m |
| Altitude | 36000 |
| Route | CINDY8S/18 CINDY Z74 HAREM DCT ASLEP DCT TAKUT DCT DINKU L603 BESNI L605 MIQ DCT ALUTU DCT BIBAG DCT AKIMA DCT MASUR MASUR3W |
| Aircraft | A320/M-SDE3FGHIRWY/LB1 |
Departure
| Time | 2026-05-06 18:44 |
|---|---|
| Airport | Frankfurt Main Airport (EDDF) |
Arrival
| Time | 2026-05-06 19:52 |
|---|---|
| Airport | Vienna International Airport (LOWW) |
| Time | Latitude | Longitude | Altitude | Speed | Heading |
|---|---|---|---|---|---|
| 2026-05-06 18:09 | 50.03895 | 8.54872 | 379 ft | 0 kts | 159° |
| 2026-05-06 18:37 | 50.03894 | 8.54872 | 379 ft | 0 kts | 159° |
| 2026-05-06 18:39 | 50.03876 | 8.54883 | 379 ft | 11 kts | 159° |
| 2026-05-06 18:39 | 50.03788 | 8.54842 | 379 ft | 18 kts | 237° |
| 2026-05-06 18:40 | 50.03675 | 8.54398 | 379 ft | 24 kts | 249° |
| 2026-05-06 18:40 | 50.03619 | 8.54157 | 379 ft | 24 kts | 250° |
| 2026-05-06 18:40 | 50.03560 | 8.53919 | 379 ft | 23 kts | 250° |
| 2026-05-06 18:40 | 50.03509 | 8.53688 | 379 ft | 23 kts | 252° |
| 2026-05-06 18:41 | 50.03456 | 8.53477 | 379 ft | 15 kts | 245° |
| 2026-05-06 18:41 | 50.03416 | 8.53329 | 379 ft | 15 kts | 248° |
| 2026-05-06 18:41 | 50.03378 | 8.53172 | 379 ft | 19 kts | 252° |
| 2026-05-06 18:41 | 50.03342 | 8.53005 | 379 ft | 5 kts | 250° |
| 2026-05-06 18:42 | 50.03323 | 8.52925 | 379 ft | 9 kts | 249° |
| 2026-05-06 18:42 | 50.03302 | 8.52838 | 379 ft | 7 kts | 251° |
| 2026-05-06 18:42 | 50.03282 | 8.52748 | 379 ft | 15 kts | 252° |
| 2026-05-06 18:42 | 50.03259 | 8.52598 | 379 ft | 8 kts | 239° |
| 2026-05-06 18:43 | 50.03231 | 8.52589 | 379 ft | 6 kts | 178° |
| 2026-05-06 18:43 | 50.03224 | 8.52590 | 379 ft | 0 kts | 176° |
| 2026-05-06 18:43 | 50.03100 | 8.52599 | 379 ft | 50 kts | 178° |
| 2026-05-06 18:44 | 50.02494 | 8.52597 | 379 ft | 123 kts | 180° |
| 2026-05-06 18:44 | 50.01489 | 8.52611 | 598 ft | 146 kts | 181° |
| 2026-05-06 18:44 | 50.00499 | 8.52606 | 1172 ft | 140 kts | 183° |
| 2026-05-06 18:44 | 49.99534 | 8.52590 | 1612 ft | 139 kts | 183° |
| 2026-05-06 18:45 | 49.98556 | 8.52576 | 2057 ft | 145 kts | 182° |
| 2026-05-06 18:45 | 49.97452 | 8.52707 | 2509 ft | 174 kts | 166° |
| 2026-05-06 18:45 | 49.96426 | 8.53914 | 3116 ft | 201 kts | 127° |
| 2026-05-06 18:45 | 49.95635 | 8.55811 | 3731 ft | 219 kts | 122° |
| 2026-05-06 18:46 | 49.94829 | 8.57978 | 4194 ft | 238 kts | 117° |
| 2026-05-06 18:46 | 49.94174 | 8.60361 | 5070 ft | 244 kts | 110° |
| 2026-05-06 18:46 | 49.93843 | 8.63002 | 5862 ft | 257 kts | 95° |
| 2026-05-06 18:46 | 49.93767 | 8.65830 | 6558 ft | 272 kts | 94° |
| 2026-05-06 18:47 | 49.93358 | 8.68759 | 7337 ft | 283 kts | 116° |
| 2026-05-06 18:47 | 49.92139 | 8.71136 | 8232 ft | 286 kts | 142° |
| 2026-05-06 18:47 | 49.90495 | 8.72882 | 9238 ft | 288 kts | 154° |
| 2026-05-06 18:47 | 49.88656 | 8.74150 | 10197 ft | 292 kts | 163° |
| 2026-05-06 18:48 | 49.86801 | 8.75624 | 10982 ft | 309 kts | 143° |
| 2026-05-06 18:48 | 49.85481 | 8.78388 | 11898 ft | 322 kts | 115° |
| 2026-05-06 18:48 | 49.84818 | 8.81629 | 12777 ft | 328 kts | 109° |
| 2026-05-06 18:48 | 49.84072 | 8.85110 | 13559 ft | 336 kts | 113° |
| 2026-05-06 18:49 | 49.83165 | 8.88426 | 14351 ft | 341 kts | 117° |
| 2026-05-06 18:49 | 49.82094 | 8.91614 | 15143 ft | 344 kts | 122° |
| 2026-05-06 18:49 | 49.80842 | 8.94921 | 15994 ft | 348 kts | 120° |
| 2026-05-06 18:49 | 49.79785 | 8.98206 | 16810 ft | 350 kts | 118° |
| 2026-05-06 18:50 | 49.78674 | 9.01662 | 17577 ft | 354 kts | 119° |
| 2026-05-06 18:50 | 49.77547 | 9.05024 | 18308 ft | 357 kts | 120° |
| 2026-05-06 18:50 | 49.76368 | 9.08413 | 19013 ft | 360 kts | 121° |
| 2026-05-06 18:50 | 49.75141 | 9.11819 | 19701 ft | 363 kts | 122° |
| 2026-05-06 18:51 | 49.73872 | 9.15223 | 20364 ft | 366 kts | 123° |
| 2026-05-06 18:51 | 49.72581 | 9.18624 | 21011 ft | 369 kts | 122° |
| 2026-05-06 18:51 | 49.71290 | 9.22049 | 21633 ft | 372 kts | 124° |
| 2026-05-06 18:51 | 49.69867 | 9.25436 | 22229 ft | 375 kts | 127° |
| 2026-05-06 18:52 | 49.68329 | 9.28749 | 22818 ft | 378 kts | 129° |
| 2026-05-06 18:52 | 49.66740 | 9.31949 | 23381 ft | 381 kts | 130° |
| 2026-05-06 18:52 | 49.65174 | 9.34968 | 23901 ft | 383 kts | 131° |
| 2026-05-06 18:52 | 49.63409 | 9.38403 | 24481 ft | 387 kts | 128° |
| 2026-05-06 18:53 | 49.61964 | 9.41950 | 25063 ft | 390 kts | 121° |
| 2026-05-06 18:53 | 49.60875 | 9.45687 | 25601 ft | 394 kts | 113° |
| 2026-05-06 18:53 | 49.59978 | 9.49789 | 26100 ft | 398 kts | 111° |
| 2026-05-06 18:53 | 49.59121 | 9.53872 | 26525 ft | 402 kts | 111° |
| 2026-05-06 18:54 | 49.58251 | 9.58009 | 26952 ft | 405 kts | 111° |
| 2026-05-06 18:54 | 49.57377 | 9.62149 | 27373 ft | 408 kts | 112° |
| 2026-05-06 18:54 | 49.56498 | 9.66313 | 27790 ft | 411 kts | 112° |
| 2026-05-06 18:54 | 49.55591 | 9.70603 | 28207 ft | 414 kts | 112° |
| 2026-05-06 18:55 | 49.54715 | 9.74740 | 28596 ft | 416 kts | 112° |
| 2026-05-06 18:55 | 49.53814 | 9.78984 | 28978 ft | 418 kts | 112° |
| 2026-05-06 18:55 | 49.52916 | 9.83203 | 29343 ft | 421 kts | 112° |
| 2026-05-06 18:55 | 49.51779 | 9.87376 | 29557 ft | 419 kts | 127° |
| 2026-05-06 18:56 | 49.49978 | 9.90837 | 29782 ft | 416 kts | 137° |
| 2026-05-06 18:56 | 49.48019 | 9.94135 | 30236 ft | 415 kts | 137° |
| 2026-05-06 18:56 | 49.46081 | 9.97434 | 30644 ft | 416 kts | 137° |
| 2026-05-06 18:56 | 49.44178 | 10.00740 | 30990 ft | 418 kts | 136° |
| 2026-05-06 18:57 | 49.42296 | 10.04077 | 31282 ft | 421 kts | 136° |
| 2026-05-06 18:57 | 49.40348 | 10.07585 | 31574 ft | 424 kts | 136° |
| 2026-05-06 18:57 | 49.38495 | 10.10960 | 31846 ft | 427 kts | 136° |
| 2026-05-06 18:57 | 49.36526 | 10.14565 | 32126 ft | 430 kts | 136° |
| 2026-05-06 18:58 | 49.34641 | 10.18029 | 32413 ft | 432 kts | 136° |
| 2026-05-06 18:58 | 49.32681 | 10.21648 | 32732 ft | 434 kts | 136° |
| 2026-05-06 18:58 | 49.30751 | 10.25221 | 33055 ft | 435 kts | 136° |
| 2026-05-06 18:58 | 49.28849 | 10.28753 | 33376 ft | 435 kts | 136° |
| 2026-05-06 18:59 | 49.26896 | 10.32384 | 33706 ft | 436 kts | 136° |
| 2026-05-06 18:59 | 49.24975 | 10.35956 | 34031 ft | 436 kts | 136° |
| 2026-05-06 18:59 | 49.23008 | 10.39471 | 34289 ft | 434 kts | 141° |
| 2026-05-06 18:59 | 49.20798 | 10.42682 | 34510 ft | 434 kts | 143° |
| 2026-05-06 19:00 | 49.18704 | 10.45739 | 34892 ft | 433 kts | 143° |
| 2026-05-06 19:00 | 49.16537 | 10.48934 | 35236 ft | 432 kts | 142° |
| 2026-05-06 19:00 | 49.14379 | 10.52119 | 35528 ft | 432 kts | 142° |
| 2026-05-06 19:00 | 49.12210 | 10.55320 | 35779 ft | 430 kts | 142° |
| 2026-05-06 19:01 | 49.10059 | 10.58490 | 36029 ft | 430 kts | 142° |
| 2026-05-06 19:01 | 49.07910 | 10.61658 | 36279 ft | 430 kts | 142° |
| 2026-05-06 19:01 | 49.05870 | 10.64665 | 36516 ft | 430 kts | 142° |
| 2026-05-06 19:01 | 49.03730 | 10.67813 | 36697 ft | 431 kts | 142° |
| 2026-05-06 19:02 | 49.01560 | 10.70998 | 36748 ft | 431 kts | 142° |
| 2026-05-06 19:02 | 48.97256 | 10.77323 | 36761 ft | 429 kts | 142° |
| 2026-05-06 19:03 | 48.92955 | 10.83636 | 36757 ft | 428 kts | 142° |
| 2026-05-06 19:03 | 48.88953 | 10.89491 | 36751 ft | 428 kts | 142° |
| 2026-05-06 19:04 | 48.84634 | 10.95805 | 36743 ft | 428 kts | 142° |
| 2026-05-06 19:04 | 48.80461 | 11.01904 | 36737 ft | 428 kts | 142° |
| 2026-05-06 19:05 | 48.76073 | 11.08288 | 36732 ft | 429 kts | 142° |
| 2026-05-06 19:05 | 48.71774 | 11.14500 | 36729 ft | 428 kts | 142° |
| 2026-05-06 19:06 | 48.67473 | 11.20732 | 36727 ft | 430 kts | 141° |
| 2026-05-06 19:06 | 48.63915 | 11.28166 | 36728 ft | 446 kts | 122° |
| 2026-05-06 19:07 | 48.61783 | 11.37100 | 36731 ft | 453 kts | 113° |
| 2026-05-06 19:07 | 48.59890 | 11.46099 | 36731 ft | 453 kts | 113° |
| 2026-05-06 19:08 | 48.57961 | 11.55266 | 36733 ft | 454 kts | 113° |
| 2026-05-06 19:08 | 48.56234 | 11.64483 | 36738 ft | 459 kts | 108° |
| 2026-05-06 19:09 | 48.54878 | 11.73921 | 36744 ft | 459 kts | 108° |
| 2026-05-06 19:09 | 48.53540 | 11.83316 | 36751 ft | 460 kts | 108° |
| 2026-05-06 19:10 | 48.52193 | 11.92825 | 36748 ft | 460 kts | 108° |
| 2026-05-06 19:10 | 48.50863 | 12.02021 | 36749 ft | 460 kts | 108° |
| 2026-05-06 19:11 | 48.49464 | 12.11609 | 36748 ft | 460 kts | 108° |
| 2026-05-06 19:11 | 48.48042 | 12.21024 | 36746 ft | 460 kts | 109° |
| 2026-05-06 19:12 | 48.46616 | 12.30421 | 36744 ft | 460 kts | 109° |
| 2026-05-06 19:12 | 48.45186 | 12.39846 | 36741 ft | 460 kts | 109° |
| 2026-05-06 19:13 | 48.43767 | 12.49187 | 36738 ft | 458 kts | 109° |
| 2026-05-06 19:13 | 48.42337 | 12.58567 | 36735 ft | 459 kts | 109° |
| 2026-05-06 19:14 | 48.40911 | 12.67890 | 36732 ft | 458 kts | 109° |
| 2026-05-06 19:14 | 48.39635 | 12.77305 | 36374 ft | 466 kts | 98° |
| 2026-05-06 19:14 | 48.39865 | 12.82123 | 36006 ft | 475 kts | 82° |
| 2026-05-06 19:15 | 48.40612 | 12.87038 | 35633 ft | 475 kts | 84° |
| 2026-05-06 19:15 | 48.41062 | 12.92020 | 35250 ft | 474 kts | 89° |
| 2026-05-06 19:15 | 48.41244 | 12.96854 | 34885 ft | 472 kts | 94° |
| 2026-05-06 19:15 | 48.41299 | 13.01847 | 34506 ft | 473 kts | 95° |
| 2026-05-06 19:16 | 48.41330 | 13.06853 | 34127 ft | 474 kts | 95° |
| 2026-05-06 19:16 | 48.41355 | 13.11786 | 33755 ft | 475 kts | 95° |
| 2026-05-06 19:16 | 48.41379 | 13.16760 | 33379 ft | 475 kts | 95° |
| 2026-05-06 19:16 | 48.41401 | 13.21723 | 33004 ft | 474 kts | 95° |
| 2026-05-06 19:17 | 48.41424 | 13.26722 | 32776 ft | 472 kts | 95° |
| 2026-05-06 19:17 | 48.41719 | 13.36702 | 32694 ft | 483 kts | 88° |
| 2026-05-06 19:18 | 48.43039 | 13.46614 | 32686 ft | 487 kts | 82° |
| 2026-05-06 19:18 | 48.43841 | 13.54947 | 32673 ft | 483 kts | 89° |
| 2026-05-06 19:18 | 48.44115 | 13.60088 | 32440 ft | 483 kts | 90° |
| 2026-05-06 19:19 | 48.44359 | 13.65127 | 32188 ft | 479 kts | 91° |
| 2026-05-06 19:19 | 48.44594 | 13.70055 | 31941 ft | 477 kts | 91° |
| 2026-05-06 19:19 | 48.44836 | 13.75110 | 31687 ft | 475 kts | 91° |
| 2026-05-06 19:19 | 48.45069 | 13.80002 | 31439 ft | 474 kts | 90° |
| 2026-05-06 19:20 | 48.45310 | 13.85027 | 31028 ft | 475 kts | 90° |
| 2026-05-06 19:20 | 48.45544 | 13.89914 | 30586 ft | 469 kts | 90° |
| 2026-05-06 19:20 | 48.45779 | 13.94801 | 30133 ft | 463 kts | 90° |
| 2026-05-06 19:20 | 48.46009 | 13.99608 | 29683 ft | 460 kts | 90° |
| 2026-05-06 19:21 | 48.46240 | 14.04388 | 29233 ft | 457 kts | 90° |
| 2026-05-06 19:21 | 48.46466 | 14.09079 | 28816 ft | 453 kts | 90° |
| 2026-05-06 19:21 | 48.46696 | 14.13841 | 28327 ft | 450 kts | 90° |
| 2026-05-06 19:21 | 48.46923 | 14.18541 | 27839 ft | 445 kts | 90° |
| 2026-05-06 19:22 | 48.47143 | 14.23184 | 27387 ft | 441 kts | 90° |
| 2026-05-06 19:22 | 48.47357 | 14.27750 | 26940 ft | 439 kts | 90° |
| 2026-05-06 19:22 | 48.47567 | 14.32323 | 26489 ft | 436 kts | 90° |
| 2026-05-06 19:22 | 48.47778 | 14.36901 | 26033 ft | 432 kts | 90° |
| 2026-05-06 19:23 | 48.47978 | 14.41345 | 25587 ft | 428 kts | 90° |
| 2026-05-06 19:23 | 48.48178 | 14.45836 | 25152 ft | 424 kts | 90° |
| 2026-05-06 19:23 | 48.48372 | 14.50257 | 24725 ft | 421 kts | 90° |
| 2026-05-06 19:23 | 48.48560 | 14.54594 | 24305 ft | 418 kts | 90° |
| 2026-05-06 19:24 | 48.48749 | 14.58961 | 23877 ft | 414 kts | 90° |
| 2026-05-06 19:24 | 48.48933 | 14.63294 | 23450 ft | 411 kts | 90° |
| 2026-05-06 19:24 | 48.49116 | 14.67570 | 23024 ft | 408 kts | 90° |
| 2026-05-06 19:24 | 48.49295 | 14.71819 | 22599 ft | 405 kts | 90° |
| 2026-05-06 19:25 | 48.49469 | 14.76013 | 22175 ft | 401 kts | 90° |
| 2026-05-06 19:25 | 48.49641 | 14.80204 | 21798 ft | 398 kts | 90° |
| 2026-05-06 19:25 | 48.49810 | 14.84329 | 21450 ft | 397 kts | 90° |
| 2026-05-06 19:25 | 48.49980 | 14.88513 | 21096 ft | 395 kts | 90° |
| 2026-05-06 19:26 | 48.50146 | 14.92627 | 20747 ft | 394 kts | 90° |
| 2026-05-06 19:26 | 48.50315 | 14.96906 | 20367 ft | 417 kts | 90° |
| 2026-05-06 19:26 | 48.50494 | 15.01257 | 20018 ft | 419 kts | 90° |
| 2026-05-06 19:26 | 48.50678 | 15.05625 | 19690 ft | 417 kts | 90° |
| 2026-05-06 19:27 | 48.50859 | 15.10012 | 19362 ft | 415 kts | 90° |
| 2026-05-06 19:27 | 48.51032 | 15.14289 | 19046 ft | 412 kts | 90° |
| 2026-05-06 19:27 | 48.51204 | 15.18587 | 18781 ft | 411 kts | 90° |
| 2026-05-06 19:27 | 48.51371 | 15.22885 | 18480 ft | 409 kts | 90° |
| 2026-05-06 19:28 | 48.51536 | 15.27158 | 18076 ft | 408 kts | 90° |
| 2026-05-06 19:28 | 48.51697 | 15.31414 | 17599 ft | 403 kts | 90° |
| 2026-05-06 19:28 | 48.51845 | 15.35488 | 17147 ft | 399 kts | 90° |
| 2026-05-06 19:28 | 48.51975 | 15.39804 | 16839 ft | 395 kts | 92° |
| 2026-05-06 19:29 | 48.51985 | 15.43950 | 16758 ft | 395 kts | 95° |
| 2026-05-06 19:29 | 48.51859 | 15.48085 | 16739 ft | 394 kts | 98° |
| 2026-05-06 19:29 | 48.51623 | 15.52228 | 16735 ft | 394 kts | 99° |
| 2026-05-06 19:29 | 48.51366 | 15.56334 | 16735 ft | 393 kts | 99° |
| 2026-05-06 19:30 | 48.51117 | 15.60114 | 16736 ft | 393 kts | 99° |
| 2026-05-06 19:30 | 48.50833 | 15.64229 | 16737 ft | 393 kts | 100° |
| 2026-05-06 19:30 | 48.50534 | 15.68325 | 16739 ft | 392 kts | 100° |
| 2026-05-06 19:30 | 48.50256 | 15.72412 | 16751 ft | 393 kts | 98° |
| 2026-05-06 19:31 | 48.50042 | 15.76547 | 16760 ft | 393 kts | 98° |
| 2026-05-06 19:31 | 48.49837 | 15.80617 | 16758 ft | 393 kts | 98° |
| 2026-05-06 19:31 | 48.49399 | 15.88855 | 16761 ft | 393 kts | 98° |
| 2026-05-06 19:32 | 48.49169 | 15.92976 | 16761 ft | 393 kts | 98° |
| 2026-05-06 19:32 | 48.48933 | 15.97106 | 16761 ft | 393 kts | 98° |
| 2026-05-06 19:32 | 48.48699 | 16.01135 | 16760 ft | 393 kts | 98° |
| 2026-05-06 19:32 | 48.48258 | 16.05199 | 16757 ft | 387 kts | 110° |
| 2026-05-06 19:33 | 48.47095 | 16.08841 | 16675 ft | 380 kts | 129° |
| 2026-05-06 19:33 | 48.45285 | 16.11564 | 16429 ft | 367 kts | 149° |
| 2026-05-06 19:33 | 48.42997 | 16.13144 | 16178 ft | 358 kts | 169° |
| 2026-05-06 19:33 | 48.40548 | 16.13742 | 15931 ft | 356 kts | 171° |
| 2026-05-06 19:34 | 48.38248 | 16.15144 | 15686 ft | 361 kts | 155° |
| 2026-05-06 19:34 | 48.36034 | 16.16944 | 15436 ft | 360 kts | 156° |
| 2026-05-06 19:34 | 48.33841 | 16.18808 | 14843 ft | 364 kts | 149° |
| 2026-05-06 19:34 | 48.32021 | 16.21467 | 14135 ft | 372 kts | 129° |
| 2026-05-06 19:35 | 48.30927 | 16.25034 | 13356 ft | 380 kts | 107° |
| 2026-05-06 19:35 | 48.30759 | 16.29002 | 12580 ft | 384 kts | 85° |
| 2026-05-06 19:35 | 48.31237 | 16.32912 | 11827 ft | 382 kts | 83° |
| 2026-05-06 19:35 | 48.31884 | 16.36764 | 11065 ft | 381 kts | 68° |
| 2026-05-06 19:36 | 48.33270 | 16.40077 | 10320 ft | 378 kts | 49° |
| 2026-05-06 19:36 | 48.35311 | 16.42551 | 9562 ft | 373 kts | 29° |
| 2026-05-06 19:36 | 48.37734 | 16.43843 | 8811 ft | 366 kts | 8° |
| 2026-05-06 19:36 | 48.40229 | 16.43809 | 8227 ft | 352 kts | 347° |
| 2026-05-06 19:37 | 48.42393 | 16.42516 | 8059 ft | 322 kts | 324° |
| 2026-05-06 19:37 | 48.44047 | 16.40480 | 8022 ft | 294 kts | 314° |
| 2026-05-06 19:37 | 48.45427 | 16.38391 | 7989 ft | 271 kts | 307° |
| 2026-05-06 19:37 | 48.46232 | 16.36966 | 7992 ft | 259 kts | 305° |
| 2026-05-06 19:38 | 48.47747 | 16.34221 | 8002 ft | 254 kts | 305° |
| 2026-05-06 19:38 | 48.48997 | 16.32326 | 7977 ft | 259 kts | 322° |
| 2026-05-06 19:38 | 48.50691 | 16.31274 | 8008 ft | 265 kts | 341° |
| 2026-05-06 19:38 | 48.52464 | 16.30598 | 8002 ft | 266 kts | 343° |
| 2026-05-06 19:39 | 48.54266 | 16.29932 | 7900 ft | 265 kts | 343° |
| 2026-05-06 19:39 | 48.56052 | 16.29272 | 7481 ft | 261 kts | 343° |
| 2026-05-06 19:39 | 48.57821 | 16.28617 | 7137 ft | 261 kts | 343° |
| 2026-05-06 19:39 | 48.59581 | 16.27961 | 7031 ft | 261 kts | 343° |
| 2026-05-06 19:40 | 48.61368 | 16.27433 | 6995 ft | 264 kts | 356° |
| 2026-05-06 19:40 | 48.63142 | 16.28078 | 6999 ft | 266 kts | 29° |
| 2026-05-06 19:40 | 48.64421 | 16.29926 | 6945 ft | 253 kts | 60° |
| 2026-05-06 19:40 | 48.64998 | 16.32345 | 6842 ft | 238 kts | 86° |
| 2026-05-06 19:41 | 48.64764 | 16.34727 | 6615 ft | 225 kts | 116° |
| 2026-05-06 19:41 | 48.64103 | 16.36857 | 6384 ft | 223 kts | 119° |
| 2026-05-06 19:41 | 48.63485 | 16.39010 | 6137 ft | 222 kts | 118° |
| 2026-05-06 19:41 | 48.62888 | 16.41115 | 5885 ft | 220 kts | 120° |
| 2026-05-06 19:42 | 48.61932 | 16.42799 | 5620 ft | 208 kts | 152° |
| 2026-05-06 19:42 | 48.60586 | 16.43458 | 5386 ft | 204 kts | 172° |
| 2026-05-06 19:42 | 48.59180 | 16.43766 | 5132 ft | 203 kts | 175° |
| 2026-05-06 19:42 | 48.57767 | 16.44009 | 4882 ft | 203 kts | 175° |
| 2026-05-06 19:43 | 48.56364 | 16.44264 | 4629 ft | 203 kts | 175° |
| 2026-05-06 19:43 | 48.54968 | 16.44514 | 4383 ft | 203 kts | 175° |
| 2026-05-06 19:43 | 48.53567 | 16.44758 | 4135 ft | 202 kts | 175° |
| 2026-05-06 19:43 | 48.52162 | 16.44999 | 4032 ft | 202 kts | 175° |
| 2026-05-06 19:44 | 48.50768 | 16.45235 | 4009 ft | 203 kts | 175° |
| 2026-05-06 19:44 | 48.49368 | 16.45470 | 3999 ft | 203 kts | 175° |
| 2026-05-06 19:44 | 48.47958 | 16.45702 | 4005 ft | 203 kts | 176° |
| 2026-05-06 19:44 | 48.46545 | 16.45878 | 4001 ft | 203 kts | 178° |
| 2026-05-06 19:45 | 48.45151 | 16.45995 | 4003 ft | 202 kts | 178° |
| 2026-05-06 19:45 | 48.43746 | 16.46114 | 4002 ft | 203 kts | 177° |
| 2026-05-06 19:45 | 48.42342 | 16.46380 | 4003 ft | 203 kts | 173° |
| 2026-05-06 19:45 | 48.40949 | 16.46692 | 4003 ft | 203 kts | 173° |
| 2026-05-06 19:46 | 48.39541 | 16.47007 | 4005 ft | 203 kts | 173° |
| 2026-05-06 19:46 | 48.38139 | 16.47324 | 4003 ft | 203 kts | 173° |
| 2026-05-06 19:46 | 48.36748 | 16.47693 | 4006 ft | 203 kts | 171° |
| 2026-05-06 19:46 | 48.35374 | 16.48126 | 4002 ft | 204 kts | 169° |
| 2026-05-06 19:47 | 48.34027 | 16.48602 | 3996 ft | 190 kts | 168° |
| 2026-05-06 19:47 | 48.32765 | 16.49075 | 4002 ft | 184 kts | 168° |
| 2026-05-06 19:47 | 48.31525 | 16.49562 | 4003 ft | 184 kts | 167° |
| 2026-05-06 19:47 | 48.30301 | 16.50058 | 3999 ft | 183 kts | 167° |
| 2026-05-06 19:48 | 48.29074 | 16.50565 | 4008 ft | 184 kts | 167° |
| 2026-05-06 19:48 | 48.27845 | 16.51079 | 3771 ft | 182 kts | 166° |
| 2026-05-06 19:48 | 48.26627 | 16.51593 | 3531 ft | 183 kts | 166° |
| 2026-05-06 19:48 | 48.25396 | 16.52114 | 3292 ft | 183 kts | 166° |
| 2026-05-06 19:49 | 48.24187 | 16.52627 | 3052 ft | 182 kts | 166° |
| 2026-05-06 19:49 | 48.22962 | 16.53149 | 2812 ft | 181 kts | 166° |
| 2026-05-06 19:49 | 48.21770 | 16.53657 | 2582 ft | 179 kts | 166° |
| 2026-05-06 19:49 | 48.20595 | 16.54158 | 2345 ft | 166 kts | 165° |
| 2026-05-06 19:50 | 48.19526 | 16.54613 | 2144 ft | 157 kts | 166° |
| 2026-05-06 19:50 | 48.18486 | 16.55055 | 1932 ft | 153 kts | 165° |
| 2026-05-06 19:50 | 48.17554 | 16.55450 | 1726 ft | 135 kts | 165° |
| 2026-05-06 19:50 | 48.16688 | 16.55819 | 1534 ft | 120 kts | 165° |
| 2026-05-06 19:51 | 48.15887 | 16.56159 | 1396 ft | 118 kts | 165° |
| 2026-05-06 19:51 | 48.15107 | 16.56491 | 1257 ft | 117 kts | 165° |
| 2026-05-06 19:51 | 48.14320 | 16.56825 | 1111 ft | 117 kts | 165° |
| 2026-05-06 19:51 | 48.13540 | 16.57155 | 965 ft | 116 kts | 165° |
| 2026-05-06 19:52 | 48.12758 | 16.57487 | 815 ft | 116 kts | 165° |
| 2026-05-06 19:52 | 48.11984 | 16.57815 | 669 ft | 116 kts | 165° |
| 2026-05-06 19:52 | 48.11288 | 16.58109 | 615 ft | 82 kts | 165° |
| 2026-05-06 19:52 | 48.10915 | 16.58262 | 615 ft | 31 kts | 162° |
| 2026-05-06 19:53 | 48.10791 | 16.58317 | 615 ft | 8 kts | 163° |
| 2026-05-06 19:53 | 48.10647 | 16.58378 | 615 ft | 36 kts | 166° |
| 2026-05-06 19:53 | 48.10400 | 16.58467 | 615 ft | 32 kts | 170° |
| 2026-05-06 19:53 | 48.10223 | 16.58439 | 615 ft | 14 kts | 194° |
| 2026-05-06 19:54 | 48.10130 | 16.58390 | 615 ft | 14 kts | 222° |
| 2026-05-06 19:54 | 48.10096 | 16.58253 | 615 ft | 14 kts | 278° |
| 2026-05-06 19:54 | 48.10156 | 16.58173 | 615 ft | 9 kts | 341° |
| 2026-05-06 19:54 | 48.10175 | 16.58164 | 615 ft | 0 kts | 345° |
| 2026-05-06 19:55 | 48.10199 | 16.58154 | 615 ft | 9 kts | 345° |
| 2026-05-06 19:55 | 48.10242 | 16.58137 | 615 ft | 9 kts | 345° |
| 2026-05-06 19:55 | 48.10293 | 16.58116 | 615 ft | 1 kts | 345° |
| 2026-05-06 19:55 | 48.10302 | 16.58112 | 615 ft | 1 kts | 345° |
| 2026-05-06 19:56 | 48.10316 | 16.58106 | 615 ft | 4 kts | 343° |
| 2026-05-06 19:56 | 48.10349 | 16.58091 | 615 ft | 0 kts | 342° |
| 2026-05-06 19:57 | 48.10350 | 16.58091 | 615 ft | 0 kts | 342° |
| 2026-05-06 20:00 | 48.10350 | 16.58090 | 615 ft | 0 kts | 342° |
| 2026-05-06 20:02 | 48.10351 | 16.58090 | 615 ft | 0 kts | 342° |
| 2026-05-06 20:02 | 48.10405 | 16.58065 | 615 ft | 14 kts | 341° |
| 2026-05-06 20:02 | 48.10529 | 16.58006 | 615 ft | 20 kts | 346° |
| 2026-05-06 20:03 | 48.10625 | 16.57971 | 615 ft | 11 kts | 346° |
| 2026-05-06 20:03 | 48.10701 | 16.57942 | 615 ft | 11 kts | 346° |
| 2026-05-06 20:03 | 48.10811 | 16.57895 | 615 ft | 22 kts | 343° |
| 2026-05-06 20:03 | 48.10975 | 16.57825 | 615 ft | 25 kts | 345° |
| 2026-05-06 20:04 | 48.11073 | 16.57674 | 615 ft | 17 kts | 287° |
| 2026-05-06 20:04 | 48.11122 | 16.57520 | 615 ft | 18 kts | 297° |
| 2026-05-06 20:04 | 48.11185 | 16.57333 | 615 ft | 21 kts | 296° |
| 2026-05-06 20:04 | 48.11246 | 16.57164 | 615 ft | 7 kts | 298° |
| 2026-05-06 20:05 | 48.11273 | 16.57083 | 615 ft | 21 kts | 295° |
| 2026-05-06 20:05 | 48.11334 | 16.56884 | 615 ft | 13 kts | 294° |
| 2026-05-06 20:05 | 48.11362 | 16.56824 | 615 ft | 3 kts | 327° |
| 2026-05-06 20:05 | 48.11363 | 16.56823 | 615 ft | 0 kts | 329° |
| 2026-05-06 20:06 | 48.11372 | 16.56818 | 615 ft | 9 kts | 352° |
| 2026-05-06 20:06 | 48.11460 | 16.56874 | 615 ft | 14 kts | 34° |
| 2026-05-06 20:06 | 48.11551 | 16.56939 | 615 ft | 14 kts | 11° |
| 2026-05-06 20:06 | 48.11595 | 16.56860 | 615 ft | 6 kts | 292° |
| 2026-05-06 20:07 | 48.11580 | 16.56834 | 615 ft | 6 kts | 212° |
| 2026-05-06 20:07 | 48.11549 | 16.56811 | 615 ft | 0 kts | 205° |